ADDS METAR Data INFO
IDs: Format: Raw Decoded Include TAF

Data at: 0211 UTC 17 Aug 2018

PAUN 170156Z AUTO 25010KT 10SM CLR 13/08 A2994 RMK AO2 SLP141 T01330078
PAUN 170056Z AUTO 24009KT 10SM CLR 14/08 A2994 RMK AO2 SLP143 T01390078
PAUN 162356Z AUTO 24012KT 10SM FEW028 SCT065 13/07 A2995 RMK AO2 SLP146 T01330067 10139 20128 53002
PAUN 162156Z AUTO 23010KT 10SM FEW020 13/09 A2994 RMK AO2 SLP144 T01330089
PAUN 162056Z AUTO 24011KT 10SM SCT021 SCT036 13/08 A2994 RMK AO2 SLP144 T01280083 50002
PAUN 162010Z AUTO 23011KT 10SM BKN021 BKN028 13/08 A2994 RMK AO2
PAUN 161956Z AUTO 24010KT 10SM FEW021 SCT028 13/09 A2995 RMK AO2 SLP145 T01280089
PAUN 161856Z AUTO 24010KT 10SM CLR 13/08 A2994 RMK AO2 SLP143 T01280078
PAUN 161756Z AUTO 26007KT 10SM CLR 13/08 A2994 RMK AO2 SLP142 T01330083 10133 20072 58001
PAUN 161656Z AUTO 27008KT 10SM SCT027 SCT034 13/08 A2994 RMK AO2 SLP143 T01280078
PAUN 161556Z AUTO 13003KT 10SM FEW029 BKN080 09/08 A2994 RMK AO2 SLP143 T00940078
PAUN 161456Z AUTO 10004KT 10SM OVC080 08/07 A2994 RMK AO2 SLP143 T00830067 58004
PAUN 161356Z AUTO 10004KT 10SM OVC085 08/07 A2995 RMK AO2 SLP145 T00830067
PAUN 161256Z AUTO 00000KT 10SM CLR 08/07 A2995 RMK AO2 SLP146 T00830067
PAUN 161156Z AUTO 09005KT 10SM CLR 08/06 A2995 RMK AO2 SLP147 T00830061 10122 20067 50000
PAUN 161056Z AUTO 09005KT 10SM SCT120 08/06 A2995 RMK AO2 SLP147 T00830061
PAUN 160956Z AUTO 08003KT 10SM CLR 08/06 A2995 RMK AO2 SLP147 T00780061
PAUN 160856Z AUTO 09004KT 10SM CLR 08/06 A2995 RMK AO2 SLP147 T00780061 401390028 52005
PAUN 160756Z AUTO 12003KT 10SM CLR 09/07 A2994 RMK AO2 SLP144 T00890067
PAUN 160656Z AUTO 00000KT 8SM CLR 10/07 A2994 RMK AO2 SLP144 T01000072
PAUN 160556Z AUTO 00000KT 10SM CLR 12/07 A2994 RMK AO2 SLP142 T01220067 10139 20122 53002
PAUN 160456Z AUTO 31007KT 10SM CLR 13/07 A2993 RMK AO2 SLP140 T01330067
PAUN 160356Z AUTO 30007KT 10SM CLR 13/08 A2993 RMK AO2 SLP140 T01330078
PAUN 160256Z AUTO 30007KT 10SM CLR 13/08 A2993 RMK AO2 SLP139 T01330083 56005
PAUN 160156Z AUTO 30006KT 10SM CLR 13/08 A2993 RMK AO2 SLP140 T01330078
PAUN 160056Z AUTO 30009KT 10SM CLR 13/08 A2994 RMK AO2 SLP142 T01330078
PAUN 152356Z AUTO 30008KT 10SM CLR 13/08 A2994 RMK AO2 SLP144 T01280078 10133 20083 50000
PAUN 152256Z AUTO 31009KT 10SM CLR 13/07 A2995 RMK AO2 SLP147 T01280067
PAUN 152156Z AUTO 29007KT 10SM CLR 12/06 A2995 RMK AO2 SLP145 T01220061
PAUN 152056Z AUTO 24005KT 10SM CLR 12/06 A2994 RMK AO2 SLP144 T01170056 51003
PAUN 151956Z AUTO 25004KT 10SM CLR 11/06 A2994 RMK AO2 SLP144 T01110056
PAUN 151856Z AUTO VRB03KT 10SM BKN039 11/06 A2994 RMK AO2 SLP143 T01060061
PAUN 151756Z AUTO 10004KT 10SM BKN045 08/06 A2993 RMK AO2 SLP141 T00830061 10083 20028 51010
PAUN 151656Z AUTO 11004KT 10SM SCT045 05/04 A2993 RMK AO2 SLP138 T00500044
PAUN 151556Z AUTO 11006KT 10SM CLR 03/03 A2992 RMK AO2 SLP135 T00330033
PAUN 151456Z AUTO 10007KT 10SM CLR 03/03 A2990 RMK AO2 SLP130 T00330028 52007